createdAt,value
2018-09-28T00:00:45.688Z,1013.26
2018-09-28T00:01:45.599Z,1013.28
2018-09-28T00:02:45.525Z,1013.32
2018-09-28T00:03:45.437Z,1013.26
2018-09-28T00:04:45.350Z,1013.27
2018-09-28T00:05:45.273Z,1013.27
2018-09-28T00:06:45.198Z,1013.30
2018-09-28T00:07:45.114Z,1013.26
2018-09-28T00:08:45.042Z,1013.25
2018-09-28T00:09:44.949Z,1013.26
2018-09-28T00:10:44.873Z,1013.27
2018-09-28T00:11:44.791Z,1013.23
2018-09-28T00:12:44.699Z,1013.21
2018-09-28T00:13:44.626Z,1013.23
2018-09-28T00:14:44.537Z,1013.19
2018-09-28T00:15:44.465Z,1013.17
2018-09-28T00:16:44.376Z,1013.15
2018-09-28T00:17:44.300Z,1013.15
2018-09-28T00:18:44.215Z,1013.14
2018-09-28T00:19:44.138Z,1013.19
2018-09-28T00:20:44.050Z,1013.22
2018-09-28T00:21:43.975Z,1013.12
2018-09-28T00:22:43.889Z,1013.16
2018-09-28T00:23:43.814Z,1013.17
2018-09-28T00:24:43.739Z,1013.12
2018-09-28T00:25:43.639Z,1013.16
2018-09-28T00:26:43.564Z,1013.13
2018-09-28T00:27:43.476Z,1013.15
2018-09-28T00:28:43.401Z,1013.11
2018-09-28T00:29:43.314Z,1013.12
2018-09-28T00:30:43.241Z,1013.12
2018-09-28T00:31:43.151Z,1013.14
2018-09-28T00:32:43.077Z,1013.12
2018-09-28T00:33:42.990Z,1013.10
2018-09-28T00:34:42.917Z,1013.12
2018-09-28T00:35:42.835Z,1013.10
2018-09-28T00:36:42.752Z,1013.12
2018-09-28T00:37:42.665Z,1013.11
2018-09-28T00:38:42.592Z,1013.07
2018-09-28T00:39:42.503Z,1013.05
2018-09-28T00:40:42.427Z,1013.08
2018-09-28T00:41:42.341Z,1013.05
2018-09-28T00:42:42.253Z,1013.05
2018-09-28T00:43:42.181Z,1013.05
2018-09-28T00:44:42.099Z,1013.03
2018-09-28T00:45:42.018Z,1013.05
2018-09-28T00:46:41.930Z,1013.05
2018-09-28T00:47:41.853Z,1013.03
2018-09-28T00:48:41.767Z,1013.02
2018-09-28T00:49:41.691Z,1013.02
2018-09-28T00:50:41.605Z,1012.97
2018-09-28T00:51:41.542Z,1012.97
2018-09-28T00:52:41.443Z,1012.95
2018-09-28T00:53:41.356Z,1012.93
2018-09-28T00:54:41.279Z,1012.91
2018-09-28T00:55:41.192Z,1012.88
2018-09-28T00:56:41.118Z,1012.91
2018-09-28T00:57:41.029Z,1012.86
2018-09-28T00:58:40.954Z,1012.87
2018-09-28T00:59:40.868Z,1012.88
2018-09-28T01:00:40.793Z,1012.87
2018-09-28T01:01:40.705Z,1012.89
2018-09-28T01:02:40.633Z,1012.85
2018-09-28T01:03:40.543Z,1012.85
2018-09-28T01:04:40.456Z,1012.85
2018-09-28T01:05:40.396Z,1012.84
2018-09-28T01:06:40.294Z,1012.86
2018-09-28T01:07:40.225Z,1012.84
2018-09-28T01:08:40.131Z,1012.83
2018-09-28T01:09:40.056Z,1012.82
2018-09-28T01:10:39.970Z,1012.81
2018-09-28T01:11:39.894Z,1012.80
2018-09-28T01:12:39.806Z,1012.76
2018-09-28T01:13:39.731Z,1012.76
2018-09-28T01:14:39.644Z,1012.76
2018-09-28T01:15:39.558Z,1012.73
2018-09-28T01:16:39.483Z,1012.73
2018-09-28T01:17:39.396Z,1012.73
2018-09-28T01:18:39.320Z,1012.72
2018-09-28T01:19:39.232Z,1012.71
2018-09-28T01:20:39.157Z,1012.67
2018-09-28T01:21:39.071Z,1012.67
2018-09-28T01:22:38.996Z,1012.69
2018-09-28T01:23:38.907Z,1012.67
2018-09-28T01:24:38.832Z,1012.70
2018-09-28T01:25:38.745Z,1012.69
2018-09-28T01:26:38.658Z,1012.67
2018-09-28T01:27:38.582Z,1012.63
2018-09-28T01:28:38.496Z,1012.63
2018-09-28T01:29:38.421Z,1012.61
2018-09-28T01:30:38.334Z,1012.59
2018-09-28T01:31:38.258Z,1012.62
2018-09-28T01:32:38.172Z,1012.62
2018-09-28T01:33:38.084Z,1012.63
2018-09-28T01:34:38.011Z,1012.63
2018-09-28T01:35:37.924Z,1012.63
2018-09-28T01:36:37.846Z,1012.64
2018-09-28T01:37:37.792Z,1012.60
2018-09-28T01:38:37.684Z,1012.63
2018-09-28T01:39:37.597Z,1012.64
2018-09-28T01:40:37.523Z,1012.65
2018-09-28T01:41:37.437Z,1012.65
2018-09-28T01:42:37.348Z,1012.63
2018-09-28T01:43:37.274Z,1012.61
2018-09-28T01:44:37.185Z,1012.62
2018-09-28T01:45:37.110Z,1012.62
2018-09-28T01:46:37.023Z,1012.60
2018-09-28T01:47:36.948Z,1012.62
2018-09-28T01:48:36.861Z,1012.61
2018-09-28T01:49:36.789Z,1012.62
2018-09-28T01:50:36.698Z,1012.61
2018-09-28T01:51:36.612Z,1012.68
2018-09-28T01:52:36.535Z,1012.64
2018-09-28T01:53:36.448Z,1012.62
2018-09-28T01:54:36.385Z,1012.66
2018-09-28T01:55:36.291Z,1012.66
2018-09-28T01:56:36.211Z,1012.67
2018-09-28T01:57:36.124Z,1012.68
2018-09-28T01:58:36.037Z,1012.65
2018-09-28T01:59:35.961Z,1012.72
2018-09-28T02:00:35.874Z,1012.69
2018-09-28T02:01:35.802Z,1012.68
2018-09-28T02:02:35.713Z,1012.69
2018-09-28T02:03:35.636Z,1012.69
2018-09-28T02:04:35.551Z,1012.64
2018-09-28T02:05:35.463Z,1012.64
2018-09-28T02:06:35.386Z,1012.63
2018-09-28T02:07:35.301Z,1012.63
2018-09-28T02:08:35.224Z,1012.61
2018-09-28T02:09:35.137Z,1012.63
2018-09-28T02:10:35.062Z,1012.60
2018-09-28T02:11:34.975Z,1012.58
2018-09-28T02:12:34.964Z,1012.60
2018-09-28T02:13:34.826Z,1012.63
2018-09-28T02:14:34.726Z,1012.66
2018-09-28T02:15:34.653Z,1012.65
2018-09-28T02:16:34.566Z,1012.66
2018-09-28T02:17:34.487Z,1012.65
2018-09-28T02:18:34.401Z,1012.66
2018-09-28T02:19:34.326Z,1012.66
2018-09-28T02:20:34.238Z,1012.67
2018-09-28T02:21:34.174Z,1012.72
2018-09-28T02:22:34.077Z,1012.70
2018-09-28T02:23:33.988Z,1012.71
2018-09-28T02:24:33.926Z,1012.70
2018-09-28T02:25:33.828Z,1012.71
2018-09-28T02:26:33.752Z,1012.70
2018-09-28T02:27:33.665Z,1012.71
2018-09-28T02:28:33.589Z,1012.71
2018-09-28T02:29:33.506Z,1012.65
2018-09-28T02:30:33.427Z,1012.65
2018-09-28T02:31:33.353Z,1012.63
2018-09-28T02:32:33.254Z,1012.60
2018-09-28T02:33:33.178Z,1012.62
2018-09-28T02:34:33.089Z,1012.60
2018-09-28T02:35:33.027Z,1012.63
2018-09-28T02:36:32.944Z,1012.62
2018-09-28T02:37:32.840Z,1012.58
2018-09-28T02:38:32.765Z,1012.57
2018-09-28T02:39:32.678Z,1012.61
2018-09-28T02:40:32.604Z,1012.63
2018-09-28T02:41:32.515Z,1012.57
2018-09-28T02:42:32.443Z,1012.62
2018-09-28T02:43:32.356Z,1012.60
2018-09-28T02:44:32.280Z,1012.60
2018-09-28T02:45:32.191Z,1012.61
2018-09-28T02:46:32.106Z,1012.58
2018-09-28T02:47:32.029Z,1012.63
2018-09-28T02:48:31.941Z,1012.62
2018-09-28T02:49:31.873Z,1012.59
2018-09-28T02:50:31.780Z,1012.62
2018-09-28T02:51:31.705Z,1012.59
2018-09-28T02:52:31.617Z,1012.63
2018-09-28T02:53:31.531Z,1012.59
2018-09-28T02:54:31.456Z,1012.62
2018-09-28T02:55:31.367Z,1012.57
2018-09-28T02:56:31.292Z,1012.59
2018-09-28T02:57:31.207Z,1012.61
2018-09-28T02:58:31.119Z,1012.57
2018-09-28T02:59:31.043Z,1012.57
2018-09-28T03:00:30.956Z,1012.53
2018-09-28T03:01:30.880Z,1012.58
2018-09-28T03:02:30.793Z,1012.60
2018-09-28T03:03:30.718Z,1012.59
2018-09-28T03:04:30.631Z,1012.55
2018-09-28T03:05:30.556Z,1012.54
2018-09-28T03:06:30.468Z,1012.55
2018-09-28T03:07:30.382Z,1012.58
2018-09-28T03:08:30.307Z,1012.49
2018-09-28T03:09:30.219Z,1012.53
2018-09-28T03:10:30.143Z,1012.50
2018-09-28T03:11:30.057Z,1012.50
2018-09-28T03:12:29.983Z,1012.49
2018-09-28T03:13:29.894Z,1012.51
2018-09-28T03:14:29.807Z,1012.47
2018-09-28T03:15:29.734Z,1012.53
2018-09-28T03:16:29.644Z,1012.53
2018-09-28T03:17:29.570Z,1012.51
2018-09-28T03:18:29.488Z,1012.55
2018-09-28T03:19:29.408Z,1012.56
2018-09-28T03:20:29.320Z,1012.55
2018-09-28T03:21:29.245Z,1012.55
2018-09-28T03:22:29.160Z,1012.55
2018-09-28T03:23:29.071Z,1012.56
2018-09-28T03:24:28.996Z,1012.60
2018-09-28T03:25:28.910Z,1012.62
2018-09-28T03:26:28.836Z,1012.61
2018-09-28T03:27:28.759Z,1012.60
2018-09-28T03:28:28.671Z,1012.59
2018-09-28T03:29:28.587Z,1012.65
2018-09-28T03:30:28.497Z,1012.63
2018-09-28T03:31:28.425Z,1012.66
2018-09-28T03:32:28.334Z,1012.65
2018-09-28T03:33:28.260Z,1012.65
2018-09-28T03:34:28.181Z,1012.66
2018-09-28T03:35:28.098Z,1012.60
2018-09-28T03:36:28.010Z,1012.64
2018-09-28T03:37:27.923Z,1012.63
2018-09-28T03:38:27.847Z,1012.63
2018-09-28T03:39:27.760Z,1012.62
2018-09-28T03:40:27.690Z,1012.63
2018-09-28T03:41:27.598Z,1012.64
2018-09-28T03:42:27.526Z,1012.65
2018-09-28T03:43:27.435Z,1012.65
2018-09-28T03:44:27.361Z,1012.64
2018-09-28T03:45:27.273Z,1012.65
2018-09-28T03:46:27.189Z,1012.63
2018-09-28T03:47:27.112Z,1012.64
2018-09-28T03:48:27.023Z,1012.60
2018-09-28T03:49:26.948Z,1012.64
2018-09-28T03:50:26.862Z,1012.64
2018-09-28T03:51:26.790Z,1012.64
2018-09-28T03:52:26.699Z,1012.65
2018-09-28T03:53:26.624Z,1012.65
2018-09-28T03:54:26.538Z,1012.67
2018-09-28T03:55:26.450Z,1012.69
2018-09-28T03:56:26.374Z,1012.64
2018-09-28T03:57:26.287Z,1012.66
2018-09-28T03:58:26.213Z,1012.63
2018-09-28T03:59:26.124Z,1012.67
2018-09-28T04:00:26.049Z,1012.67
2018-09-28T04:01:25.962Z,1012.66
2018-09-28T04:02:25.877Z,1012.62
2018-09-28T04:03:25.800Z,1012.62
2018-09-28T04:04:25.718Z,1012.65
2018-09-28T04:05:25.640Z,1012.66
2018-09-28T04:06:25.551Z,1012.64
2018-09-28T04:07:25.476Z,1012.64
2018-09-28T04:08:25.388Z,1012.63
2018-09-28T04:09:25.314Z,1012.63
2018-09-28T04:10:25.225Z,1012.65
2018-09-28T04:11:25.139Z,1012.64
2018-09-28T04:12:25.065Z,1012.67
2018-09-28T04:13:24.976Z,1012.63
2018-09-28T04:14:24.902Z,1012.66
2018-09-28T04:15:24.814Z,1012.67
2018-09-28T04:16:24.740Z,1012.67
2018-09-28T04:17:24.655Z,1012.71
2018-09-28T04:18:24.577Z,1012.70
2018-09-28T04:19:24.489Z,1012.74
2018-09-28T04:20:24.402Z,1012.72
2018-09-28T04:21:24.327Z,1012.76
2018-09-28T04:22:24.240Z,1012.75
2018-09-28T04:23:24.165Z,1012.70
2018-09-28T04:24:24.077Z,1012.71
2018-09-28T04:25:24.002Z,1012.71
2018-09-28T04:26:23.915Z,1012.73
2018-09-28T04:27:23.828Z,1012.76
2018-09-28T04:28:23.752Z,1012.77
2018-09-28T04:29:23.666Z,1012.74
2018-09-28T04:30:23.591Z,1012.78
2018-09-28T04:31:23.503Z,1012.73
2018-09-28T04:32:23.441Z,1012.78
2018-09-28T04:33:23.342Z,1012.77
2018-09-28T04:34:23.254Z,1012.79
2018-09-28T04:35:23.179Z,1012.77
2018-09-28T04:36:23.092Z,1012.77
2018-09-28T04:37:23.017Z,1012.81
2018-09-28T04:38:22.929Z,1012.81
2018-09-28T04:39:22.854Z,1012.84
2018-09-28T04:40:22.768Z,1012.83
2018-09-28T04:41:22.680Z,1012.86
2018-09-28T04:42:22.604Z,1012.88
2018-09-28T04:43:22.518Z,1012.88
2018-09-28T04:44:22.442Z,1012.88
2018-09-28T04:45:22.424Z,1012.88
2018-09-28T04:46:22.280Z,1012.93
2018-09-28T04:47:22.193Z,1012.90
2018-09-28T04:48:22.118Z,1012.95
2018-09-28T04:49:22.030Z,1012.95
2018-09-28T04:50:21.944Z,1013.01
2018-09-28T04:51:21.868Z,1012.99
2018-09-28T04:52:21.782Z,1012.99
2018-09-28T04:53:21.705Z,1012.99
2018-09-28T04:54:21.618Z,1012.99
2018-09-28T04:55:21.547Z,1013.02
2018-09-28T04:56:21.468Z,1013.01
2018-09-28T04:57:21.368Z,1012.98
2018-09-28T04:58:21.293Z,1013.00
2018-09-28T04:59:21.207Z,1013.03
2018-09-28T05:00:21.131Z,1013.03
2018-09-28T05:01:21.044Z,1013.07
2018-09-28T05:02:20.969Z,1013.10
2018-09-28T05:03:20.882Z,1013.08
2018-09-28T05:04:20.807Z,1013.09
2018-09-28T05:05:20.722Z,1013.13
2018-09-28T05:06:20.633Z,1013.13
2018-09-28T05:07:20.557Z,1013.16
2018-09-28T05:08:20.470Z,1013.17
2018-09-28T05:09:20.395Z,1013.18
2018-09-28T05:10:20.320Z,1013.24
2018-09-28T05:11:20.232Z,1013.26
2018-09-28T05:12:20.148Z,1013.25
2018-09-28T05:13:20.063Z,1013.30
2018-09-28T05:14:19.983Z,1013.27
2018-09-28T05:15:19.897Z,1013.27
2018-09-28T05:16:19.826Z,1013.30
2018-09-28T05:17:19.734Z,1013.34
2018-09-28T05:18:19.658Z,1013.37
2018-09-28T05:19:19.604Z,1013.36
2018-09-28T05:20:19.506Z,1013.37
2018-09-28T05:21:19.408Z,1013.35
2018-09-28T05:22:19.322Z,1013.33
2018-09-28T05:23:19.247Z,1013.33
2018-09-28T05:24:19.159Z,1013.37
2018-09-28T05:25:19.143Z,1013.43
2018-09-28T05:26:18.998Z,1013.44
2018-09-28T05:27:18.923Z,1013.42
2018-09-28T05:28:18.858Z,1013.45
2018-09-28T05:29:18.762Z,1013.49
2018-09-28T05:30:18.674Z,1013.47
2018-09-28T05:31:18.739Z,1013.49
2018-09-28T05:32:18.645Z,1013.49
2018-09-28T05:33:18.423Z,1013.51
2018-09-28T05:34:18.348Z,1013.54
2018-09-28T05:35:18.259Z,1013.57
2018-09-28T05:36:18.187Z,1013.60
2018-09-28T05:37:18.141Z,1013.59
2018-09-28T05:38:18.024Z,1013.66
2018-09-28T05:39:17.961Z,1013.68
2018-09-28T05:40:17.860Z,1013.65
2018-09-28T05:41:17.774Z,1013.63
2018-09-28T05:42:17.703Z,1013.71
2018-09-28T05:43:17.611Z,1013.73
2018-09-28T05:44:17.536Z,1013.75
2018-09-28T05:45:17.452Z,1013.74
2018-09-28T05:46:17.367Z,1013.77
2018-09-28T05:47:17.286Z,1013.81
2018-09-28T05:48:17.199Z,1013.84
2018-09-28T05:49:17.127Z,1013.83
2018-09-28T05:50:17.042Z,1013.84
2018-09-28T05:51:16.985Z,1013.84
2018-09-28T05:52:16.876Z,1013.87
2018-09-28T05:53:16.800Z,1013.90
2018-09-28T05:54:16.711Z,1013.93
2018-09-28T05:55:16.638Z,1013.91
2018-09-28T05:56:16.551Z,1013.94
2018-09-28T05:57:16.463Z,1013.95
2018-09-28T05:58:16.388Z,1013.96
2018-09-28T05:59:16.304Z,1013.98
2018-09-28T06:00:16.226Z,1014.00
2018-09-28T06:01:16.139Z,1014.01
2018-09-28T06:02:16.063Z,1014.00
2018-09-28T06:03:15.977Z,1014.04
2018-09-28T06:04:15.901Z,1014.07
2018-09-28T06:05:15.827Z,1014.06
2018-09-28T06:06:15.738Z,1014.09
2018-09-28T06:07:15.652Z,1014.12
2018-09-28T06:08:15.576Z,1014.17
2018-09-28T06:09:15.488Z,1014.17
2018-09-28T06:10:15.427Z,1014.18
2018-09-28T06:11:15.327Z,1014.18
2018-09-28T06:12:15.240Z,1014.18
2018-09-28T06:13:15.163Z,1014.19
2018-09-28T06:14:15.088Z,1014.20
2018-09-28T06:15:15.003Z,1014.20
2018-09-28T06:16:14.914Z,1014.23
2018-09-28T06:17:14.844Z,1014.27
2018-09-28T06:18:14.752Z,1014.29
2018-09-28T06:19:14.678Z,1014.31
2018-09-28T06:20:14.590Z,1014.34
2018-09-28T06:21:14.515Z,1014.33
2018-09-28T06:22:14.428Z,1014.33
2018-09-28T06:23:14.352Z,1014.40
2018-09-28T06:24:14.319Z,1014.40
2018-09-28T06:25:14.190Z,1014.41
2018-09-28T06:26:14.103Z,1014.45
2018-09-28T06:27:14.029Z,1014.50
2018-09-28T06:28:13.954Z,1014.52
2018-09-28T06:29:13.853Z,1014.52
2018-09-28T06:30:13.783Z,1014.53
2018-09-28T06:31:13.690Z,1014.55
2018-09-28T06:32:13.616Z,1014.57
2018-09-28T06:33:13.530Z,1014.56
2018-09-28T06:34:13.455Z,1014.57
2018-09-28T06:35:13.381Z,1014.61
2018-09-28T06:36:13.354Z,1014.59
2018-09-28T06:37:13.206Z,1014.67
2018-09-28T06:38:13.187Z,1014.61
2018-09-28T06:39:13.041Z,1014.65
2018-09-28T06:40:12.968Z,1014.69
2018-09-28T06:41:12.880Z,1014.69
2018-09-28T06:42:12.819Z,1014.70
2018-09-28T06:43:12.720Z,1014.72
2018-09-28T06:44:12.642Z,1014.73
2018-09-28T06:45:12.556Z,1014.70
2018-09-28T06:46:12.483Z,1014.72
2018-09-28T06:47:12.394Z,1014.72
2018-09-28T06:48:12.340Z,1014.73
2018-09-28T06:49:12.231Z,1014.75
2018-09-28T06:50:12.158Z,1014.79
2018-09-28T06:51:12.078Z,1014.77
2018-09-28T06:52:11.993Z,1014.76
2018-09-28T06:53:11.905Z,1014.80
2018-09-28T06:54:11.882Z,1014.84
2018-09-28T06:55:11.747Z,1014.84
2018-09-28T06:56:11.682Z,1014.80
2018-09-28T06:57:11.583Z,1014.85
2018-09-28T06:58:11.531Z,1014.85
2018-09-28T06:59:11.419Z,1014.88
2018-09-28T07:00:11.357Z,1014.91
2018-09-28T07:01:11.257Z,1014.92
2018-09-28T07:02:11.170Z,1014.94
2018-09-28T07:03:11.095Z,1014.99
2018-09-28T07:04:11.021Z,1014.97
2018-09-28T07:05:10.933Z,1014.99
2018-09-28T07:06:10.855Z,1015.00
2018-09-28T07:07:10.783Z,1015.02
2018-09-28T07:08:10.695Z,1015.02
2018-09-28T07:09:10.611Z,1015.03
2018-09-28T07:10:10.521Z,1015.03
2018-09-28T07:11:10.445Z,1015.04
2018-09-28T07:12:10.398Z,1015.03
2018-09-28T07:13:10.284Z,1015.09
2018-09-28T07:14:10.197Z,1015.07
2018-09-28T07:15:10.121Z,1015.16
2018-09-28T07:16:10.060Z,1015.22
2018-09-28T07:17:09.958Z,1015.19
2018-09-28T07:18:09.884Z,1015.22
2018-09-28T07:19:09.796Z,1015.26
2018-09-28T07:20:09.729Z,1015.29
2018-09-28T07:21:09.634Z,1015.26
2018-09-28T07:22:09.559Z,1015.30
2018-09-28T07:23:09.471Z,1015.36
2018-09-28T07:24:09.467Z,1015.33
2018-09-28T07:25:09.355Z,1015.36
2018-09-28T07:26:09.235Z,1015.39
2018-09-28T07:27:09.148Z,1015.43
2018-09-28T07:28:09.072Z,1015.44
2018-09-28T07:29:09.009Z,1015.52
2018-09-28T07:30:08.983Z,1015.46
2018-09-28T07:31:08.836Z,1015.54
2018-09-28T07:32:08.760Z,1015.48
2018-09-28T07:33:08.672Z,1015.52
2018-09-28T07:34:08.599Z,1015.57
2018-09-28T07:35:08.523Z,1015.52
2018-09-28T07:36:08.622Z,1015.58
2018-09-28T07:37:08.471Z,1015.57
2018-09-28T07:38:08.289Z,1015.59
2018-09-28T07:39:08.210Z,1015.64
2018-09-28T07:40:08.124Z,1015.61
2018-09-28T07:41:08.048Z,1015.63
2018-09-28T07:42:08.008Z,1015.66
2018-09-28T07:43:07.887Z,1015.70
2018-09-28T07:44:07.811Z,1015.69
2018-09-28T07:45:07.724Z,1015.76
2018-09-28T07:46:07.663Z,1015.72
2018-09-28T07:47:07.574Z,1015.76
2018-09-28T07:48:07.512Z,1015.80
2018-09-28T07:49:07.438Z,1015.81
2018-09-28T07:50:07.339Z,1015.84
2018-09-28T07:51:07.263Z,1015.88
2018-09-28T07:52:07.189Z,1015.94
2018-09-28T07:53:07.100Z,1015.94
2018-09-28T07:54:07.024Z,1015.94
2018-09-28T07:55:06.952Z,1015.95
2018-09-28T07:56:06.875Z,1015.96
2018-09-28T07:57:06.789Z,1015.92
2018-09-28T07:58:06.715Z,1016.00
2018-09-28T07:59:06.639Z,1016.02
2018-09-28T08:00:06.564Z,1016.05
2018-09-28T08:01:06.489Z,1016.12
2018-09-28T08:02:06.401Z,1016.10
2018-09-28T08:03:06.325Z,1016.19
2018-09-28T08:04:06.253Z,1016.18
2018-09-28T08:05:06.190Z,1016.24
2018-09-28T08:06:06.102Z,1016.27
2018-09-28T08:07:06.026Z,1016.25
2018-09-28T08:08:05.953Z,1016.29
2018-09-28T08:09:05.871Z,1016.29
2018-09-28T08:10:05.794Z,1016.27
2018-09-28T08:11:05.716Z,1016.32
2018-09-28T08:12:05.640Z,1016.35
2018-09-28T08:13:05.565Z,1016.38
2018-09-28T08:14:05.491Z,1016.40
2018-09-28T08:15:05.416Z,1016.41
2018-09-28T08:16:05.340Z,1016.45
2018-09-28T08:17:05.255Z,1016.42
2018-09-28T08:18:05.191Z,1016.42
2018-09-28T08:19:05.106Z,1016.41
2018-09-28T08:20:05.029Z,1016.39
2018-09-28T08:21:04.955Z,1016.43
2018-09-28T08:22:04.878Z,1016.42
2018-09-28T08:23:04.817Z,1016.47
2018-09-28T08:24:04.732Z,1016.49
2018-09-28T08:25:04.654Z,1016.50
2018-09-28T08:26:04.583Z,1016.55
2018-09-28T08:27:04.504Z,1016.58
2018-09-28T08:28:04.432Z,1016.56
2018-09-28T08:29:04.357Z,1016.52
2018-09-28T08:30:04.288Z,1016.59
2018-09-28T08:31:04.194Z,1016.58
2018-09-28T08:32:04.118Z,1016.60
2018-09-28T08:33:04.055Z,1016.60
2018-09-28T08:34:03.968Z,1016.61
2018-09-28T08:35:03.893Z,1016.60
2018-09-28T08:36:03.818Z,1016.58
2018-09-28T08:37:03.757Z,1016.61
2018-09-28T08:38:03.668Z,1016.59
2018-09-28T08:39:03.594Z,1016.58
2018-09-28T08:40:03.523Z,1016.57
2018-09-28T08:41:03.431Z,1016.59
2018-09-28T08:42:03.355Z,1016.66
2018-09-28T08:43:03.280Z,1016.58
2018-09-28T08:44:03.205Z,1016.63
2018-09-28T08:45:03.145Z,1016.57
2018-09-28T08:46:03.056Z,1016.58
2018-09-28T08:47:02.981Z,1016.62
2018-09-28T08:48:02.908Z,1016.73
2018-09-28T08:49:02.883Z,1016.70
2018-09-28T08:50:02.756Z,1016.71
2018-09-28T08:51:02.681Z,1016.69
2018-09-28T08:52:02.607Z,1016.67
2018-09-28T08:53:02.531Z,1016.63
2018-09-28T08:54:02.457Z,1016.69
2018-09-28T08:55:02.383Z,1016.72
2018-09-28T08:56:02.295Z,1016.76
2018-09-28T08:57:02.220Z,1016.73
2018-09-28T08:58:02.145Z,1016.76
2018-09-28T08:59:02.070Z,1016.78
2018-09-28T09:00:01.996Z,1016.75
2018-09-28T09:01:01.933Z,1016.81
2018-09-28T09:02:01.872Z,1016.82
2018-09-28T09:03:01.771Z,1016.81
2018-09-28T09:04:01.695Z,1016.84
2018-09-28T09:05:01.624Z,1016.81
2018-09-28T09:06:01.549Z,1016.83
2018-09-28T09:07:01.471Z,1016.85
2018-09-28T09:08:01.384Z,1016.82
2018-09-28T09:09:01.308Z,1016.88
2018-09-28T09:10:01.233Z,1016.91
2018-09-28T09:11:01.159Z,1016.93
2018-09-28T09:12:01.084Z,1016.97
2018-09-28T09:13:01.022Z,1016.91
2018-09-28T09:14:00.933Z,1016.91
2018-09-28T09:15:00.859Z,1016.89
2018-09-28T09:16:00.785Z,1016.86
2018-09-28T09:17:00.698Z,1016.94
2018-09-28T09:18:00.696Z,1016.93
2018-09-28T09:19:00.555Z,1016.96
2018-09-28T09:20:00.472Z,1016.98
2018-09-28T09:21:00.401Z,1017.01
2018-09-28T09:22:00.322Z,1016.97
2018-09-28T09:23:00.234Z,1016.97
2018-09-28T09:24:00.208Z,1017.01
2018-09-28T09:25:00.085Z,1016.97
2018-09-28T09:26:00.024Z,1016.95
2018-09-28T09:26:59.935Z,1017.03
2018-09-28T09:27:59.848Z,1017.04
2018-09-28T09:28:59.774Z,1017.07
2018-09-28T09:29:59.704Z,1017.09
2018-09-28T09:30:59.624Z,1017.07
2018-09-28T09:31:59.548Z,1017.09
2018-09-28T09:32:59.461Z,1017.15
2018-09-28T09:33:59.386Z,1017.18
2018-09-28T09:34:59.312Z,1017.18
2018-09-28T09:35:59.238Z,1017.17
2018-09-28T09:36:59.161Z,1017.12
2018-09-28T09:37:59.074Z,1017.14
2018-09-28T09:38:59.000Z,1017.09
2018-09-28T09:39:58.924Z,1017.12
2018-09-28T09:40:58.850Z,1017.09
2018-09-28T09:41:58.765Z,1017.15
2018-09-28T09:42:58.688Z,1017.13
2018-09-28T09:43:58.611Z,1017.18
2018-09-28T09:44:58.525Z,1017.17
2018-09-28T09:45:58.451Z,1017.20
2018-09-28T09:46:58.377Z,1017.18
2018-09-28T09:47:58.300Z,1017.15
2018-09-28T09:48:58.212Z,1017.20
2018-09-28T09:49:58.137Z,1017.14
2018-09-28T09:50:58.064Z,1017.17
2018-09-28T09:51:57.988Z,1017.16
2018-09-28T09:52:57.901Z,1017.09
2018-09-28T09:53:57.830Z,1017.15
2018-09-28T09:54:57.755Z,1017.14
2018-09-28T09:55:57.677Z,1017.13
2018-09-28T09:56:57.603Z,1017.14
2018-09-28T09:57:57.547Z,1017.16
2018-09-28T09:58:57.441Z,1017.17
2018-09-28T09:59:57.366Z,1017.14
2018-09-28T10:00:57.277Z,1017.12
2018-09-28T10:01:57.202Z,1017.12
2018-09-28T10:02:57.128Z,1017.16
2018-09-28T10:03:57.040Z,1017.14
2018-09-28T10:04:56.964Z,1017.21
2018-09-28T10:05:56.889Z,1017.21
2018-09-28T10:06:56.817Z,1017.22
2018-09-28T10:07:56.729Z,1017.25
2018-09-28T10:08:56.652Z,1017.22
2018-09-28T10:09:56.578Z,1017.20
2018-09-28T10:10:56.503Z,1017.20
2018-09-28T10:11:56.415Z,1017.18
2018-09-28T10:12:56.347Z,1017.18
2018-09-28T10:13:56.265Z,1017.17
2018-09-28T10:14:56.203Z,1017.17
2018-09-28T10:15:56.103Z,1017.18
2018-09-28T10:16:56.032Z,1017.16
2018-09-28T10:17:55.953Z,1017.19
2018-09-28T10:18:55.866Z,1017.16
2018-09-28T10:19:55.804Z,1017.11
2018-09-28T10:20:55.716Z,1017.16
2018-09-28T10:21:55.642Z,1017.16
2018-09-28T10:22:55.554Z,1017.20
2018-09-28T10:23:55.479Z,1017.11
2018-09-28T10:24:55.405Z,1017.15
2018-09-28T10:25:55.335Z,1017.14
2018-09-28T10:26:55.295Z,1017.12
2018-09-28T10:27:55.216Z,1017.15
2018-09-28T10:28:55.105Z,1017.19
2018-09-28T10:29:55.023Z,1017.16
2018-09-28T10:30:54.932Z,1017.13
2018-09-28T10:31:54.858Z,1017.13
2018-09-28T10:32:54.781Z,1017.11
2018-09-28T10:33:54.706Z,1017.14
2018-09-28T10:34:54.621Z,1017.12
2018-09-28T10:35:54.543Z,1017.21
2018-09-28T10:36:54.468Z,1017.32
2018-09-28T10:37:54.394Z,1017.23
2018-09-28T10:38:54.318Z,1017.25
2018-09-28T10:39:54.235Z,1017.20
2018-09-28T10:40:54.241Z,1017.21
2018-09-28T10:41:54.081Z,1017.18
2018-09-28T10:42:54.008Z,1017.26
2018-09-28T10:43:53.919Z,1017.27
2018-09-28T10:44:53.844Z,1017.29
2018-09-28T10:45:53.787Z,1017.33
2018-09-28T10:46:53.694Z,1017.30
2018-09-28T10:47:53.620Z,1017.45
2018-09-28T10:48:53.546Z,1017.32
2018-09-28T10:49:53.458Z,1017.31
2018-09-28T10:50:53.441Z,1017.30
2018-09-28T10:51:53.343Z,1017.25
2018-09-28T10:52:53.331Z,1017.38
2018-09-28T10:53:53.158Z,1017.37
2018-09-28T10:54:53.071Z,1017.26
2018-09-28T10:55:52.996Z,1017.24
2018-09-28T10:56:52.920Z,1017.35
2018-09-28T10:57:52.858Z,1017.32
2018-09-28T10:58:52.822Z,1017.30
2018-09-28T10:59:52.695Z,1017.36
2018-09-28T11:00:52.622Z,1017.37
2018-09-28T11:01:52.534Z,1017.29
2018-09-28T11:02:52.459Z,1017.44
2018-09-28T11:03:52.385Z,1017.24
2018-09-28T11:04:52.312Z,1017.23
2018-09-28T11:05:52.233Z,1017.34
2018-09-28T11:06:52.160Z,1017.29
2018-09-28T11:07:52.085Z,1017.24
2018-09-28T11:08:52.029Z,1017.26
2018-09-28T11:09:51.928Z,1017.23
2018-09-28T11:10:51.847Z,1017.29
2018-09-28T11:11:51.771Z,1017.30
2018-09-28T11:12:51.696Z,1017.27
2018-09-28T11:13:51.622Z,1017.32
2018-09-28T11:14:51.546Z,1017.37
2018-09-28T11:15:51.485Z,1017.40
2018-09-28T11:16:51.385Z,1017.38
2018-09-28T11:17:51.310Z,1017.39
2018-09-28T11:18:51.271Z,1017.41
2018-09-28T11:19:51.172Z,1017.38
2018-09-28T11:20:51.087Z,1017.36
2018-09-28T11:21:51.011Z,1017.34
2018-09-28T11:22:50.936Z,1017.14
2018-09-28T11:23:50.860Z,1017.32
2018-09-28T11:24:50.789Z,1017.37
2018-09-28T11:25:50.711Z,1017.35
2018-09-28T11:26:50.636Z,1017.38
2018-09-28T11:27:50.591Z,1017.33
2018-09-28T11:28:50.474Z,1017.32
2018-09-28T11:29:50.400Z,1017.43
2018-09-28T11:30:50.337Z,1017.31
2018-09-28T11:31:50.265Z,1017.38
2018-09-28T11:32:50.175Z,1017.44
2018-09-28T11:33:50.200Z,1017.42
2018-09-28T11:34:50.037Z,1017.33
2018-09-28T11:35:49.962Z,1017.39
2018-09-28T11:36:49.893Z,1017.43
2018-09-28T11:37:49.821Z,1017.40
2018-09-28T11:38:49.738Z,1017.36
2018-09-28T11:39:49.723Z,1017.32
2018-09-28T11:40:49.588Z,1017.31
2018-09-28T11:41:49.518Z,1017.50
2018-09-28T11:42:49.439Z,1017.37
2018-09-28T11:43:49.363Z,1017.40
2018-09-28T11:44:49.291Z,1017.34
2018-09-28T11:45:49.271Z,1017.36
2018-09-28T11:46:49.138Z,1017.31
2018-09-28T11:47:49.064Z,1017.38
2018-09-28T11:48:48.989Z,1017.35
2018-09-28T11:49:48.914Z,1017.51
2018-09-28T11:50:48.838Z,1017.54
2018-09-28T11:51:48.972Z,1017.54
2018-09-28T11:52:48.689Z,1017.55
2018-09-28T11:53:48.614Z,1017.54
2018-09-28T11:54:48.540Z,1017.53
2018-09-28T11:55:48.464Z,1017.58
2018-09-28T11:56:48.377Z,1017.58
2018-09-28T11:57:48.370Z,1017.56
2018-09-28T11:58:48.239Z,1017.58
2018-09-28T11:59:48.165Z,1017.54
2018-09-28T12:00:48.092Z,1017.59
2018-09-28T12:01:48.016Z,1017.58
2018-09-28T12:02:47.940Z,1017.60
2018-09-28T12:03:47.941Z,1017.55
2018-09-28T12:04:47.790Z,1017.55